Colonial Heights, VA

6:21 PM EDT on August 27, 2015 (GMT -0400)
Skywarn Spotter CFD0022 | | Change Station
CLOSE
Current Station
Personal Weather Station
Location: Colonial Heights, VA
Elevation: 60 ft
Nearby Weather Stations

Elev 60 ft 37.29 °N, 77.40 °W | Updated 56 seconds ago

Overcast
Overcast
81.1 °F
Feels Like 80 °F
N
0.7
Wind Variable Wind from SW
Gusts 2.2 mph

Today
High -- | Low -- °F
--% Chance of Precip.
Yesterday
High -- | Low -- °F
Precip. -- in
6:35 AM 7:45 PM
Waxing Gibbous, 95% visible
Pressure 30.08 in
Visibility 10.0 miles
Clouds Mostly Cloudy 5000 ft
Heat Index 80 °F
Dew Point 50 °F
Humidity 34%
Rainfall 0.00 in
Snow Depth Not available.
UV 1 out of 12
Pollen 8.90 out of 12
Air Quality Not available.
Flu Activity Not available.
METAR KPTB 272155Z AUTO 11003KT 10SM BKN050 27/18 A3008 RMK AO2 T02730175
Pressure 30.08 in
Visibility 10.0 miles
Clouds Mostly Cloudy 5000 ft
Heat Index 80 °F
Dew Point 50 °F
Humidity 34%
Rainfall 0.00 in
Snow Depth Not available.
UV 1 out of 12
Pollen 8.90 out of 12
Air Quality Not available.
Flu Activity Not available.
METAR KPTB 272155Z AUTO 11003KT 10SM BKN050 27/18 A3008 RMK AO2 T02730175

10-Day Weather Forecast

×

Almanac

Astronomy

Aug. 27, 2015 Rise Set
Actual Time
Civil Twilight
Nautical Twilight
Astronomical Twilight
Moon
Length of Visible Light
Length of Day
Tomorrow will be .
, % of the Moon is Illuminated

Today's Extremes

State Highs State Lows

Community

WunderPhotos

Upload Photos

1,850,249 photos uploaded!

WunderBlogs® & News

Nearby

Air Quality

  Air Quality AQ Index Pollutant
Not available.

Snow Depth

Station Depth Elevation

Earthquake Activity

City Distance Mag. Time & Date
Minimum magnitude displayed is 2.5.

Coastal Water Temperatures

Place Temperature

Stations

Nearby Weather Stations

Station Location Temp. Windchill Dew Point Humidity Wind Precip. Elev Updated Type